Time;durP1;ratioP1;P1;durP2;ratioP2;P2;SDS_P1;SDS_P2;PMS_P1;PMS_P2;Temp;Humidity;BMP_temperature;BMP_pressure;BME280_temperature;BME280_humidity;BME280_pressure;Samples;Min_cycle;Max_cycle;Signal;HPM_P1;HPM_P2
2022/04/27 00:02:16;;;;;;;5.97;2.83;;;6.80;99.90;;;;;;5043811;28;20087;-69
2022/04/27 00:04:42;;;;;;;5.35;3.08;;;6.80;99.90;;;;;;5028420;28;20105;-69
2022/04/27 00:07:08;;;;;;;9.27;3.05;;;6.80;99.90;;;;;;5045750;28;20041;-69
2022/04/27 00:09:34;;;;;;;5.72;2.83;;;6.80;99.90;;;;;;5045000;28;20545;-69
2022/04/27 00:12:02;;;;;;;8.95;3.28;;;6.90;99.90;;;;;;5045293;28;20076;-69
2022/04/27 00:14:32;;;;;;;8.20;2.55;;;6.90;99.90;;;;;;5045232;28;20068;-69
2022/04/27 00:16:58;;;;;;;7.75;2.92;;;6.90;99.90;;;;;;5044816;28;20048;-69
2022/04/27 00:19:25;;;;;;;11.27;3.10;;;7.00;99.90;;;;;;5045035;28;20048;-69
2022/04/27 00:21:51;;;;;;;8.98;3.33;;;7.00;99.90;;;;;;5043703;28;20460;-69
2022/04/27 00:24:18;;;;;;;6.13;2.60;;;7.00;99.90;;;;;;5045592;28;20392;-69
2022/04/27 00:26:45;;;;;;;9.32;3.13;;;7.10;99.90;;;;;;5044474;28;20055;-69
2022/04/27 00:29:11;;;;;;;7.75;3.38;;;7.10;99.90;;;;;;5045477;28;20049;-69
2022/04/27 00:31:37;;;;;;;9.35;2.80;;;7.10;99.90;;;;;;5043814;28;20048;-69
2022/04/27 00:34:03;;;;;;;9.88;3.78;;;7.10;99.90;;;;;;5044906;28;20049;-69
2022/04/27 00:36:31;;;;;;;6.45;3.00;;;7.10;99.90;;;;;;5045458;28;20510;-69
2022/04/27 00:38:58;;;;;;;6.18;2.90;;;7.10;99.90;;;;;;5044741;28;20048;-69
2022/04/27 00:41:24;;;;;;;5.75;3.83;;;7.10;99.90;;;;;;5028177;28;20060;-69
2022/04/27 00:43:49;;;;;;;6.70;2.95;;;7.00;99.90;;;;;;5044748;28;20041;-69
2022/04/27 00:46:15;;;;;;;7.35;3.17;;;7.00;99.90;;;;;;5045112;28;20083;-69
2022/04/27 00:48:41;;;;;;;8.23;2.78;;;7.00;99.90;;;;;;5044803;28;20068;-69
2022/04/27 00:51:29;;;;;;;8.48;3.30;;;7.00;99.90;;;;;;5028342;28;20068;-69
2022/04/27 00:53:58;;;;;;;8.18;3.40;;;6.90;99.90;;;;;;5045954;28;20037;-68
2022/04/27 00:56:24;;;;;;;5.07;2.95;;;6.90;99.90;;;;;;5045258;28;20515;-69
2022/04/27 00:58:50;;;;;;;6.18;3.15;;;6.80;99.90;;;;;;5046445;28;20037;-69
2022/04/27 01:01:16;;;;;;;12.50;3.45;;;6.80;99.90;;;;;;5043072;28;20051;-69
2022/04/27 01:03:42;;;;;;;6.10;3.70;;;6.90;99.90;;;;;;5046664;28;20132;-70
2022/04/27 01:06:08;;;;;;;5.93;3.17;;;6.90;99.90;;;;;;5027057;28;20802;-69
2022/04/27 01:08:34;;;;;;;14.75;3.97;;;6.90;99.90;;;;;;5045196;28;20136;-69
2022/04/27 01:11:02;;;;;;;13.55;4.28;;;6.90;99.90;;;;;;5044965;28;20132;-69
2022/04/27 01:13:27;;;;;;;11.52;4.20;;;7.00;99.90;;;;;;5043957;28;20049;-69
2022/04/27 01:15:53;;;;;;;11.93;3.88;;;7.00;99.90;;;;;;5044772;28;20055;-70
2022/04/27 01:18:19;;;;;;;17.88;6.55;;;7.00;99.90;;;;;;5026947;28;20047;-69
2022/04/27 01:20:45;;;;;;;12.27;4.05;;;7.10;99.90;;;;;;5044999;28;20052;-69
2022/04/27 01:23:12;;;;;;;10.73;4.13;;;7.10;99.90;;;;;;5044013;28;20103;-69
2022/04/27 01:25:55;;;;;;;12.90;4.85;;;7.20;99.90;;;;;;5045150;28;20052;-69
2022/04/27 01:28:27;;;;;;;8.82;3.72;;;7.30;99.90;;;;;;5043696;28;20146;-70
2022/04/27 01:31:04;;;;;;;11.98;3.83;;;7.30;99.90;;;;;;5027641;28;20063;-70
2022/04/27 01:33:31;;;;;;;8.07;3.75;;;7.40;99.90;;;;;;5028276;28;20142;-70
2022/04/27 01:36:00;;;;;;;9.52;3.78;;;7.40;99.90;;;;;;5027467;28;20045;-69
2022/04/27 01:38:26;;;;;;;10.75;4.18;;;7.40;99.90;;;;;;5044018;28;20049;-69
2022/04/27 01:40:54;;;;;;;10.90;4.32;;;7.40;99.90;;;;;;5044435;28;20055;-70
2022/04/27 01:43:24;;;;;;;16.15;4.45;;;7.40;99.90;;;;;;5043897;28;20049;-70
2022/04/27 01:45:50;;;;;;;;;;;7.40;99.90;;;;;;5044795;28;20048;-69
2022/04/27 01:48:16;;;;;;;13.15;4.13;;;7.50;99.90;;;;;;5043692;28;20395;-69
2022/04/27 01:50:42;;;;;;;11.80;4.53;;;7.50;99.90;;;;;;5028509;28;20052;-69
2022/04/27 01:55:52;;;;;;;9.68;3.95;;;7.50;99.90;;;;;;5044161;28;20139;-69
2022/04/27 01:58:19;;;;;;;10.70;3.80;;;7.50;99.90;;;;;;5027063;28;20132;-69
2022/04/27 02:00:48;;;;;;;11.05;4.30;;;7.50;99.90;;;;;;5044344;28;20047;-69
2022/04/27 02:03:15;;;;;;;6.90;4.17;;;7.50;99.90;;;;;;5040657;28;20555;-69
2022/04/27 02:05:52;;;;;;;12.77;4.07;;;7.40;99.90;;;;;;5008206;28;20079;-69
2022/04/27 02:08:18;;;;;;;15.60;4.28;;;7.40;99.90;;;;;;5044483;28;20048;-69
2022/04/27 02:10:45;;;;;;;9.32;3.80;;;7.40;99.90;;;;;;5044599;28;20080;-69
2022/04/27 02:13:11;;;;;;;11.07;4.18;;;7.40;99.90;;;;;;5049291;28;20124;-69
2022/04/27 02:15:38;;;;;;;10.38;4.68;;;7.40;99.90;;;;;;5047612;28;20148;-69
2022/04/27 02:18:04;;;;;;;10.73;4.43;;;7.40;99.90;;;;;;5047678;28;20057;-69
2022/04/27 02:20:29;;;;;;;8.75;5.03;;;7.40;99.90;;;;;;5047437;28;20523;-69
2022/04/27 02:22:55;;;;;;;12.85;4.40;;;7.40;99.90;;;;;;5047199;28;20060;-69
2022/04/27 02:25:24;;;;;;;16.52;5.03;;;7.50;99.90;;;;;;5027271;28;20060;-69
2022/04/27 02:27:51;;;;;;;12.43;5.10;;;7.50;99.90;;;;;;5010447;28;20049;-69
2022/04/27 02:30:18;;;;;;;8.13;4.28;;;7.50;99.90;;;;;;5027936;28;20064;-69
2022/04/27 02:32:46;;;;;;;7.50;4.22;;;7.50;99.90;;;;;;5043036;28;20613;-69
2022/04/27 02:35:12;;;;;;;12.68;4.93;;;7.40;99.90;;;;;;5047024;28;20084;-69
2022/04/27 02:37:38;;;;;;;11.25;4.75;;;7.40;99.90;;;;;;5047453;28;20037;-69
2022/04/27 02:40:05;;;;;;;12.40;5.65;;;7.40;99.90;;;;;;5047211;28;20037;-69
2022/04/27 02:42:32;;;;;;;10.13;4.22;;;7.40;99.90;;;;;;5047352;28;20107;-68
2022/04/27 02:44:58;;;;;;;11.20;4.70;;;7.40;99.90;;;;;;5046253;28;20052;-69
2022/04/27 02:47:24;;;;;;;6.03;3.88;;;7.40;99.90;;;;;;5048737;28;20052;-69
2022/04/27 02:52:34;;;;;;;8.73;4.82;;;7.40;99.90;;;;;;5048325;28;20530;-69
2022/04/27 02:55:00;;;;;;;10.52;5.10;;;7.30;99.90;;;;;;5046827;28;20092;-69
2022/04/27 02:57:25;;;;;;;15.15;5.85;;;7.30;99.90;;;;;;5026014;28;20042;-69
2022/04/27 02:59:51;;;;;;;7.05;4.50;;;7.30;99.90;;;;;;5027463;28;20089;-69
2022/04/27 03:02:17;;;;;;;9.10;5.47;;;7.30;99.90;;;;;;5037503;28;20487;-69
2022/04/27 03:04:43;;;;;;;12.15;5.47;;;7.30;99.90;;;;;;5046963;28;20051;-69
2022/04/27 03:07:09;;;;;;;11.60;5.03;;;7.30;99.90;;;;;;5046515;28;20049;-69
2022/04/27 03:09:36;;;;;;;8.50;5.53;;;7.30;99.90;;;;;;5030060;28;20083;-69
2022/04/27 03:12:02;;;;;;;13.93;5.50;;;7.30;99.90;;;;;;5046787;28;20041;-69
2022/04/27 03:14:28;;;;;;;15.45;5.50;;;7.30;99.90;;;;;;5046268;28;20075;-69
2022/04/27 03:16:55;;;;;;;11.68;5.18;;;7.30;99.90;;;;;;5046666;28;20103;-69
2022/04/27 03:19:21;;;;;;;8.73;4.95;;;7.30;99.90;;;;;;5045343;28;20041;-69
2022/04/27 03:21:47;;;;;;;9.02;4.45;;;7.30;99.90;;;;;;5048114;28;20522;-69
2022/04/27 03:24:14;;;;;;;13.23;5.75;;;7.30;99.90;;;;;;5045333;28;20037;-69
2022/04/27 03:26:40;;;;;;;15.55;5.53;;;7.30;99.90;;;;;;5043748;28;21691;-68
2022/04/27 03:29:06;;;;;;;11.80;5.30;;;7.30;99.90;;;;;;5009883;28;20059;-69
2022/04/27 03:31:32;;;;;;;12.15;5.38;;;7.30;99.90;;;;;;5039299;28;20045;-69
2022/04/27 03:33:58;;;;;;;13.63;5.97;;;7.30;99.90;;;;;;5046647;28;20049;-69
2022/04/27 03:36:24;;;;;;;12.68;5.43;;;7.40;99.90;;;;;;5045229;28;20045;-69
2022/04/27 03:38:50;;;;;;;11.65;5.50;;;7.30;99.90;;;;;;5046826;28;20288;-69
2022/04/27 03:41:20;;;;;;;12.43;5.28;;;7.30;99.90;;;;;;5028717;28;20045;-69
2022/04/27 03:43:50;;;;;;;10.32;5.60;;;7.30;99.90;;;;;;5030584;28;20044;-69
2022/04/27 03:46:16;;;;;;;;;;;7.30;99.90;;;;;;5045745;28;20052;-69
2022/04/27 03:48:42;;;;;;;10.75;5.50;;;7.30;99.90;;;;;;5029884;28;20329;-69
2022/04/27 03:51:09;;;;;;;11.38;6.60;;;7.30;99.90;;;;;;5029655;28;20045;-69
2022/04/27 03:53:34;;;;;;;8.48;5.10;;;7.30;99.90;;;;;;5028985;28;20057;-69
2022/04/27 03:56:00;;;;;;;8.00;5.30;;;7.30;99.90;;;;;;5029279;28;20098;-69
2022/04/27 03:58:26;;;;;;;17.13;6.47;;;7.30;99.90;;;;;;5044840;28;20049;-69
2022/04/27 04:00:52;;;;;;;9.18;5.72;;;7.30;99.90;;;;;;5046071;28;20048;-69
2022/04/27 04:03:19;;;;;;;12.75;6.43;;;7.30;99.90;;;;;;5028979;28;20049;-69
2022/04/27 04:05:44;;;;;;;9.63;6.75;;;7.30;99.90;;;;;;5045975;28;20059;-69
2022/04/27 04:08:10;;;;;;;13.35;6.40;;;7.20;99.90;;;;;;5045551;28;20056;-69
2022/04/27 04:10:36;;;;;;;17.52;6.65;;;7.20;99.90;;;;;;5045569;28;20404;-69
2022/04/27 04:13:02;;;;;;;13.88;7.30;;;7.20;99.90;;;;;;5046283;28;20404;-69
2022/04/27 04:15:28;;;;;;;11.45;6.30;;;7.30;99.90;;;;;;5044883;28;20403;-69
2022/04/27 04:17:54;;;;;;;11.93;6.70;;;7.20;99.90;;;;;;5046161;28;20168;-69
2022/04/27 04:20:20;;;;;;;11.20;6.43;;;7.20;99.90;;;;;;5044234;28;20514;-69
2022/04/27 04:22:47;;;;;;;11.95;7.45;;;7.20;99.90;;;;;;5029455;28;20510;-69
2022/04/27 04:30:43;;;;;;;11.07;6.78;;;7.20;99.90;;;;;;5045305;28;20394;-69
2022/04/27 04:33:08;;;;;;;17.95;6.57;;;7.20;99.90;;;;;;5025233;28;20128;-69
2022/04/27 04:35:35;;;;;;;17.58;7.43;;;7.30;99.90;;;;;;5008148;28;20132;-69
2022/04/27 04:38:01;;;;;;;15.95;7.80;;;7.30;99.90;;;;;;5009663;28;20474;-69
2022/04/27 04:40:28;;;;;;;9.52;6.15;;;7.30;99.90;;;;;;5044414;28;20131;-69
2022/04/27 04:42:54;;;;;;;11.20;6.07;;;7.30;99.90;;;;;;5045160;28;20400;-69
2022/04/27 04:45:20;;;;;;;9.13;6.18;;;7.20;99.90;;;;;;5045261;28;20045;-69
2022/04/27 04:47:45;;;;;;;10.52;6.40;;;7.20;99.90;;;;;;5028736;28;20041;-69
2022/04/27 04:50:12;;;;;;;14.68;6.85;;;7.30;99.90;;;;;;5043979;28;20041;-69
2022/04/27 04:52:38;;;;;;;13.98;6.70;;;7.30;99.90;;;;;;5044953;28;20494;-70
2022/04/27 04:55:04;;;;;;;15.70;7.43;;;7.30;99.90;;;;;;5044268;28;20048;-69
2022/04/27 04:57:30;;;;;;;12.80;6.63;;;7.30;99.90;;;;;;5044524;28;20087;-69
2022/04/27 04:59:56;;;;;;;14.07;6.65;;;7.30;99.90;;;;;;5043749;28;20048;-69
2022/04/27 05:02:22;;;;;;;12.63;6.97;;;7.30;99.90;;;;;;5031364;28;20038;-69
2022/04/27 05:04:49;;;;;;;11.77;6.97;;;7.30;99.90;;;;;;5024995;28;20128;-69
2022/04/27 05:07:18;;;;;;;10.35;6.68;;;7.40;99.90;;;;;;5024739;28;20073;-69
2022/04/27 05:09:44;;;;;;;13.02;7.00;;;7.40;99.90;;;;;;5026831;28;20054;-68
2022/04/27 05:12:10;;;;;;;15.98;7.40;;;7.40;99.90;;;;;;5043732;28;20369;-69
2022/04/27 05:14:36;;;;;;;15.98;6.75;;;7.40;99.90;;;;;;5046298;28;20045;-69
2022/04/27 05:17:02;;;;;;;12.93;7.22;;;7.40;99.90;;;;;;5044157;28;20513;-69
2022/04/27 05:19:28;;;;;;;12.88;6.75;;;7.50;99.90;;;;;;5044623;28;20137;-69
2022/04/27 05:21:53;;;;;;;10.15;6.63;;;7.50;99.90;;;;;;5027564;28;20134;-69
2022/04/27 05:24:19;;;;;;;12.52;6.88;;;7.50;99.90;;;;;;5044813;28;20049;-69
2022/04/27 05:26:45;;;;;;;10.80;7.45;;;7.50;99.90;;;;;;5027609;28;20052;-69
2022/04/27 05:31:58;;;;;;;14.15;7.22;;;7.60;99.90;;;;;;5030829;28;20057;-69
2022/04/27 05:34:30;;;;;;;12.45;6.20;;;7.70;99.90;;;;;;5044025;28;20060;-69
2022/04/27 05:36:56;;;;;;;11.30;4.90;;;7.70;99.90;;;;;;5044768;28;20053;-69
2022/04/27 05:39:22;;;;;;;15.25;6.53;;;7.70;99.90;;;;;;5044809;28;20044;-70
2022/04/27 05:41:52;;;;;;;13.15;5.95;;;7.80;99.90;;;;;;5044927;28;20600;-70
2022/04/27 05:44:21;;;;;;;9.40;6.45;;;7.80;99.90;;;;;;5045086;28;20052;-70
2022/04/27 05:46:47;;;;;;;11.68;6.07;;;7.80;99.90;;;;;;5029370;28;20136;-68
2022/04/27 05:49:13;;;;;;;12.13;6.00;;;7.80;99.90;;;;;;5050210;28;20052;-68
2022/04/27 05:51:39;;;;;;;12.98;6.40;;;7.90;99.90;;;;;;5046674;28;20048;-68
2022/04/27 05:54:05;;;;;;;11.32;6.65;;;7.90;99.90;;;;;;5048813;28;20049;-69
2022/04/27 05:56:31;;;;;;;9.32;6.82;;;7.90;99.90;;;;;;5047927;28;20467;-69
2022/04/27 05:58:57;;;;;;;10.75;6.95;;;7.90;99.90;;;;;;5048264;28;20134;-69
2022/04/27 06:01:23;;;;;;;8.32;4.72;;;8.00;99.90;;;;;;5043644;28;20057;-69
2022/04/27 06:03:49;;;;;;;9.63;5.00;;;8.00;99.90;;;;;;5025117;28;20558;-69
2022/04/27 06:06:15;;;;;;;5.20;4.07;;;8.10;99.90;;;;;;5031734;28;20048;-69
2022/04/27 06:08:41;;;;;;;10.15;3.33;;;8.10;99.90;;;;;;5047204;28;20055;-69
2022/04/27 06:11:07;;;;;;;8.07;3.75;;;8.10;99.90;;;;;;5048563;28;20453;-69
2022/04/27 06:13:33;;;;;;;7.70;4.25;;;8.20;99.90;;;;;;5046455;28;20044;-69
2022/04/27 06:15:59;;;;;;;9.25;4.45;;;8.30;99.90;;;;;;5047984;28;20107;-69
2022/04/27 06:18:25;;;;;;;10.38;4.03;;;8.30;99.90;;;;;;5047712;28;20122;-69
2022/04/27 06:20:52;;;;;;;7.20;3.20;;;8.40;99.90;;;;;;5048400;28;20049;-68
2022/04/27 06:23:18;;;;;;;8.40;3.70;;;8.40;99.90;;;;;;5022734;28;20045;-68
2022/04/27 06:25:47;;;;;;;8.18;2.67;;;8.50;99.90;;;;;;5044768;28;20076;-68
2022/04/27 06:28:13;;;;;;;5.47;2.35;;;8.60;99.90;;;;;;5047926;28;20119;-68
2022/04/27 06:30:40;;;;;;;6.07;2.08;;;8.60;99.90;;;;;;5046721;28;20361;-68
2022/04/27 06:33:06;;;;;;;5.07;2.05;;;8.60;96.80;;;;;;5030920;28;20049;-69
2022/04/27 06:35:32;;;;;;;5.72;2.30;;;8.70;95.70;;;;;;5046668;28;20523;-68
2022/04/27 06:37:58;;;;;;;2.70;1.73;;;8.80;95.70;;;;;;5047234;28;20056;-69
2022/04/27 06:40:24;;;;;;;2.72;1.50;;;8.90;91.80;;;;;;5047587;28;20049;-69
2022/04/27 06:42:51;;;;;;;5.70;1.80;;;8.90;90.60;;;;;;5046414;28;20128;-69
2022/04/27 06:45:17;;;;;;;6.15;1.50;;;9.00;91.30;;;;;;5017638;28;20045;-69
2022/04/27 06:47:42;;;;;;;5.00;1.20;;;9.00;86.50;;;;;;5027454;28;20442;-69
2022/04/27 06:50:12;;;;;;;4.85;1.42;;;9.10;84.30;;;;;;4995069;28;20046;-68
2022/04/27 06:52:42;;;;;;;3.23;1.00;;;9.10;80.00;;;;;;5042054;28;20051;-69
2022/04/27 06:55:11;;;;;;;6.47;1.23;;;9.20;67.80;;;;;;5036953;28;20054;-69
2022/04/27 06:57:37;;;;;;;2.08;0.85;;;9.20;71.30;;;;;;5025212;28;20041;-69
2022/04/27 07:00:04;;;;;;;4.78;1.77;;;9.20;57.50;;;;;;5025955;28;20085;-70
2022/04/27 07:02:30;;;;;;;1.75;0.82;;;9.30;69.40;;;;;;5046670;28;20052;-68
2022/04/27 07:05:00;;;;;;;7.85;1.08;;;9.40;77.60;;;;;;5044872;28;20045;-70
2022/04/27 07:07:29;;;;;;;5.53;1.20;;;9.60;69.60;;;;;;5046775;28;20044;-68
2022/04/27 07:09:56;;;;;;;3.50;1.00;;;9.70;58.30;;;;;;5046623;28;20053;-68
2022/04/27 07:12:24;;;;;;;2.58;0.98;;;9.80;65.00;;;;;;5029810;28;20394;-68
2022/04/27 07:14:51;;;;;;;5.43;1.35;;;9.90;50.30;;;;;;5045838;28;20384;-68
2022/04/27 07:17:17;;;;;;;4.90;0.90;;;10.00;58.40;;;;;;5029944;28;20061;-67
2022/04/27 07:19:43;;;;;;;3.05;1.25;;;10.20;56.20;;;;;;5026451;28;20069;-68
2022/04/27 07:22:10;;;;;;;5.32;1.55;;;10.20;53.00;;;;;;5025994;28;21190;-68
2022/04/27 07:24:37;;;;;;;3.35;1.10;;;10.30;48.50;;;;;;5005388;28;20407;-68
2022/04/27 07:27:04;;;;;;;4.95;1.35;;;10.30;56.90;;;;;;5045503;28;20047;-68
2022/04/27 07:29:30;;;;;;;4.68;1.33;;;10.40;47.20;;;;;;5042357;28;20057;-67
2022/04/27 07:31:55;;;;;;;2.78;0.98;;;10.30;37.80;;;;;;5045119;28;20521;-68
2022/04/27 07:34:21;;;;;;;6.43;1.10;;;10.40;48.90;;;;;;5046411;28;20045;-67
2022/04/27 07:36:47;;;;;;;3.13;1.02;;;10.40;50.90;;;;;;5027616;28;20088;-67
2022/04/27 07:39:13;;;;;;;4.43;1.08;;;10.40;45.40;;;;;;5008525;28;20112;-68
2022/04/27 07:41:39;;;;;;;1.65;0.77;;;10.40;48.30;;;;;;5026286;28;20207;-68
2022/04/27 07:44:06;;;;;;;7.70;1.02;;;10.40;38.90;;;;;;5024561;28;20499;-69
2022/04/27 07:46:33;;;;;;;3.90;1.38;;;10.40;54.40;;;;;;5045350;28;20180;-68
2022/04/27 07:48:58;;;;;;;2.72;1.17;;;10.40;40.20;;;;;;5029283;28;20554;-68
2022/04/27 07:51:24;;;;;;;6.68;1.25;;;10.40;45.50;;;;;;5029253;28;20042;-68
2022/04/27 07:53:50;;;;;;;5.00;1.02;;;10.40;33.80;;;;;;5045094;28;20067;-69
2022/04/27 07:56:16;;;;;;;4.20;0.95;;;10.40;36.00;;;;;;5044427;28;20040;-69
2022/04/27 07:58:42;;;;;;;2.92;1.00;;;10.40;37.00;;;;;;5045224;28;20402;-68
2022/04/27 08:01:07;;;;;;;3.90;1.20;;;10.40;41.80;;;;;;5043673;28;20502;-69
2022/04/27 08:03:33;;;;;;;4.55;1.10;;;10.40;29.70;;;;;;5045657;28;20059;-68
2022/04/27 08:06:01;;;;;;;5.57;1.38;;;10.30;29.40;;;;;;5044022;28;20480;-69
2022/04/27 08:08:27;;;;;;;6.80;2.08;;;10.30;33.30;;;;;;5044748;28;20053;-69
2022/04/27 08:10:53;;;;;;;4.80;0.93;;;10.20;34.30;;;;;;5011192;28;20047;-68
2022/04/27 08:13:18;;;;;;;2.15;0.90;;;10.20;28.70;;;;;;5024379;28;20148;-68
2022/04/27 08:15:44;;;;;;;5.15;1.40;;;10.20;26.30;;;;;;5036368;28;20049;-68
2022/04/27 08:18:10;;;;;;;4.75;1.42;;;10.30;39.30;;;;;;5024579;28;20041;-68
2022/04/27 08:23:21;;;;;;;6.43;1.33;;;10.40;32.90;;;;;;5035963;28;20408;-68
2022/04/27 08:25:48;;;;;;;4.47;1.48;;;10.40;34.30;;;;;;5017598;28;20064;-68
2022/04/27 08:28:16;;;;;;;3.85;1.50;;;10.50;32.00;;;;;;5053876;28;20339;-68
2022/04/27 08:30:43;;;;;;;5.60;1.30;;;10.50;34.60;;;;;;5039624;28;20423;-69
2022/04/27 08:33:10;;;;;;;4.18;1.25;;;10.50;31.00;;;;;;5044279;28;20402;-68
2022/04/27 08:35:38;;;;;;;5.88;1.30;;;10.50;42.90;;;;;;5044099;28;20049;-69
2022/04/27 08:38:06;;;;;;;6.18;1.30;;;10.50;37.40;;;;;;5045068;28;20049;-69
2022/04/27 08:40:36;;;;;;;8.05;1.60;;;10.50;34.00;;;;;;5027069;28;20036;-68
2022/04/27 08:43:02;;;;;;;5.07;1.45;;;10.50;31.10;;;;;;5043772;28;20043;-68
2022/04/27 08:45:29;;;;;;;5.22;1.40;;;10.50;35.30;;;;;;5043749;28;20049;-68
2022/04/27 08:47:55;;;;;;;5.28;1.30;;;10.60;26.40;;;;;;5039079;28;20160;-68
2022/04/27 08:50:24;;;;;;;7.10;1.42;;;10.60;26.10;;;;;;5044757;28;20091;-68
2022/04/27 08:52:50;;;;;;;10.18;2.25;;;10.50;31.90;;;;;;5043253;28;20094;-68
2022/04/27 08:55:17;;;;;;;9.70;1.58;;;10.60;27.10;;;;;;5045414;28;20111;-68
2022/04/27 08:57:44;;;;;;;5.70;1.58;;;10.70;31.90;;;;;;5043852;28;20057;-70
2022/04/27 09:00:14;;;;;;;7.05;1.42;;;10.60;25.80;;;;;;5044859;28;20045;-68
2022/04/27 09:02:40;;;;;;;11.30;2.22;;;10.60;27.00;;;;;;5044249;28;20060;-68
2022/04/27 09:05:07;;;;;;;2.88;1.45;;;10.50;25.60;;;;;;5023527;28;20042;-68
2022/04/27 09:07:38;;;;;;;6.28;1.50;;;10.50;33.90;;;;;;5025296;28;20060;-68
2022/04/27 09:10:06;;;;;;;7.60;1.50;;;10.60;26.90;;;;;;5023048;28;20050;-68
2022/04/27 09:12:32;;;;;;;7.95;1.73;;;10.60;29.30;;;;;;5025266;28;20124;-68
2022/04/27 09:15:04;;;;;;;8.82;1.65;;;10.50;26.20;;;;;;5023375;28;20125;-68
2022/04/27 09:23:04;;;;;;;4.05;1.40;;;10.70;41.20;;;;;;5029681;28;20057;-68
2022/04/27 09:25:35;;;;;;;6.97;1.48;;;10.80;36.30;;;;;;5031658;28;20049;-68
2022/04/27 09:28:02;;;;;;;7.32;1.55;;;10.80;38.20;;;;;;5029539;28;20045;-69
2022/04/27 09:30:30;;;;;;;4.97;1.63;;;10.90;31.80;;;;;;5030796;28;20399;-69
2022/04/27 09:32:57;;;;;;;13.00;2.33;;;10.90;30.10;;;;;;5013683;28;20439;-68
2022/04/27 09:35:32;;;;;;;7.65;1.80;;;10.90;37.10;;;;;;5029226;28;20049;-68
2022/04/27 09:38:19;;;;;;;4.00;1.20;;;11.10;34.50;;;;;;5027758;28;20543;-68
2022/04/27 09:40:50;;;;;;;8.60;1.60;;;11.20;36.50;;;;;;5028662;28;20049;-68
2022/04/27 09:43:17;;;;;;;6.43;1.73;;;11.30;30.80;;;;;;5042101;28;20041;-68
2022/04/27 09:45:43;;;;;;;4.90;1.42;;;11.30;30.00;;;;;;5010676;28;20042;-68
2022/04/27 09:48:19;;;;;;;3.85;1.10;;;11.20;30.90;;;;;;5026498;28;20049;-68
2022/04/27 09:50:46;;;;;;;8.23;1.58;;;11.30;29.60;;;;;;5012024;28;20084;-68
2022/04/27 09:53:14;;;;;;;6.63;1.88;;;11.30;30.20;;;;;;5046175;28;20095;-68
2022/04/27 09:55:52;;;;;;;6.60;1.60;;;11.20;28.10;;;;;;5048628;28;20052;-68
2022/04/27 09:58:21;;;;;;;4.72;1.63;;;11.20;29.00;;;;;;5047478;28;20049;-66
2022/04/27 10:00:50;;;;;;;9.60;1.90;;;11.30;36.80;;;;;;5049620;28;20040;-69
2022/04/27 10:03:18;;;;;;;6.60;1.30;;;11.40;30.90;;;;;;5044659;28;20136;-68
2022/04/27 10:05:46;;;;;;;7.72;1.80;;;11.50;30.30;;;;;;5048888;28;20061;-68
2022/04/27 10:08:12;;;;;;;5.90;1.70;;;11.40;29.20;;;;;;5048186;28;20439;-68
2022/04/27 10:10:39;;;;;;;7.47;1.88;;;11.30;30.60;;;;;;5046956;28;20094;-67
2022/04/27 10:13:12;;;;;;;6.78;1.60;;;11.30;28.70;;;;;;5026450;28;20048;-68
2022/04/27 10:15:47;;;;;;;8.10;1.95;;;11.30;33.40;;;;;;5036894;28;20064;-67
2022/04/27 10:18:19;;;;;;;5.35;1.40;;;11.20;30.30;;;;;;5044194;28;20049;-67
2022/04/27 10:20:48;;;;;;;3.95;1.85;;;11.20;29.20;;;;;;5030861;28;20541;-68
2022/04/27 10:23:31;;;;;;;11.05;2.10;;;11.20;28.80;;;;;;5046725;28;20171;-68
2022/04/27 10:26:09;;;;;;;6.47;2.00;;;11.20;29.60;;;;;;5047813;28;20135;-68
2022/04/27 10:28:51;;;;;;;4.60;1.83;;;11.30;30.80;;;;;;5045860;28;20572;-67
2022/04/27 10:31:51;;;;;;;11.27;1.45;;;11.30;37.00;;;;;;5046455;28;20099;-69
2022/04/27 10:34:17;;;;;;;4.97;1.65;;;11.40;30.90;;;;;;5039181;28;20041;-69
2022/04/27 10:36:43;;;;;;;7.20;1.63;;;11.50;30.40;;;;;;5030838;28;20499;-68
2022/04/27 10:39:12;;;;;;;5.18;1.40;;;11.40;30.50;;;;;;5028774;28;20559;-69
2022/04/27 10:42:16;;;;;;;6.72;1.92;;;11.50;29.90;;;;;;5028637;28;20056;-69
2022/04/27 10:44:49;;;;;;;6.07;1.50;;;11.50;30.70;;;;;;5044747;28;20045;-68
2022/04/27 10:47:19;;;;;;;5.38;1.80;;;11.50;29.10;;;;;;5046547;28;20506;-68
2022/04/27 10:49:50;;;;;;;7.43;2.50;;;11.40;32.70;;;;;;5029625;28;20439;-69
2022/04/27 10:52:22;;;;;;;6.10;1.70;;;11.40;33.90;;;;;;5046008;28;20055;-68
2022/04/27 10:54:48;;;;;;;5.63;1.55;;;11.30;33.50;;;;;;5047129;28;20128;-69
2022/04/27 10:57:14;;;;;;;13.35;2.40;;;11.30;31.90;;;;;;5047383;28;20198;-70
2022/04/27 10:59:43;;;;;;;9.02;2.55;;;11.30;33.20;;;;;;5047895;28;20045;-68
2022/04/27 11:02:32;;;;;;;5.20;1.33;;;11.30;34.80;;;;;;5042307;28;20479;-69
2022/04/27 11:04:59;;;;;;;8.05;1.75;;;11.20;31.20;;;;;;5029639;28;20053;-69
2022/04/27 11:07:49;;;;;;;9.63;2.03;;;11.20;37.80;;;;;;5046905;28;20052;-68
2022/04/27 11:10:16;;;;;;;11.85;1.98;;;11.20;32.90;;;;;;5040996;28;20049;-68
2022/04/27 11:12:49;;;;;;;13.27;2.60;;;11.10;36.00;;;;;;5026957;28;20045;-68
2022/04/27 11:15:26;;;;;;;11.25;1.92;;;11.00;42.90;;;;;;5043038;28;20086;-70
2022/04/27 11:18:10;;;;;;;10.48;2.08;;;11.00;55.90;;;;;;5027454;28;20048;-70
2022/04/27 11:20:38;;;;;;;11.25;2.38;;;11.00;58.00;;;;;;5044138;28;20049;-70
2022/04/27 11:23:09;;;;;;;21.67;2.60;;;11.00;56.40;;;;;;5044617;28;20049;-70
2022/04/27 11:25:42;;;;;;;8.88;2.70;;;11.00;52.80;;;;;;5044564;28;20470;-69
2022/04/27 11:28:08;;;;;;;10.88;2.20;;;11.00;60.20;;;;;;5042919;28;20381;-70
2022/04/27 11:30:34;;;;;;;18.92;2.22;;;11.00;55.70;;;;;;5040347;28;20049;-69
2022/04/27 11:33:01;;;;;;;13.45;2.42;;;10.90;60.70;;;;;;5022209;28;20195;-70
2022/04/27 11:35:49;;;;;;;11.63;2.30;;;10.90;57.60;;;;;;5024709;28;20103;-70
2022/04/27 11:38:34;;;;;;;11.30;2.10;;;10.80;51.10;;;;;;5007325;28;20068;-70
2022/04/27 11:41:02;;;;;;;10.75;2.78;;;10.80;56.60;;;;;;5022305;28;20100;-69
2022/04/27 11:43:34;;;;;;;11.57;2.03;;;10.80;66.80;;;;;;5028019;28;20106;-69
2022/04/27 11:46:00;;;;;;;10.98;2.05;;;10.80;55.80;;;;;;5028625;28;20327;-69
2022/04/27 11:48:30;;;;;;;19.88;2.67;;;10.70;56.80;;;;;;5023543;28;20319;-70
2022/04/27 11:51:00;;;;;;;;;;;10.70;68.00;;;;;;5029681;28;20080;-69
2022/04/27 11:53:26;;;;;;;23.17;2.83;;;10.70;64.00;;;;;;5025577;28;19921;-69
2022/04/27 11:55:53;;;;;;;10.43;2.58;;;10.80;57.60;;;;;;5026239;28;20045;-70
2022/04/27 11:58:23;;;;;;;11.63;2.13;;;10.80;62.40;;;;;;5024366;28;20504;-69
2022/04/27 12:00:53;;;;;;;11.93;1.90;;;10.90;71.10;;;;;;4995018;28;20499;-69
2022/04/27 12:03:19;;;;;;;9.98;2.65;;;11.10;71.30;;;;;;5026214;28;20076;-69
2022/04/27 12:05:51;;;;;;;9.48;2.67;;;11.10;61.60;;;;;;5026912;28;20053;-70
2022/04/27 12:08:21;;;;;;;12.30;2.50;;;11.10;64.50;;;;;;5024747;28;20504;-71
2022/04/27 12:10:49;;;;;;;12.50;2.20;;;11.10;61.80;;;;;;5032169;28;20049;-71
2022/04/27 12:13:17;;;;;;;18.75;2.55;;;11.20;60.00;;;;;;5045626;28;20506;-71
2022/04/27 12:15:47;;;;;;;11.50;2.33;;;11.20;64.10;;;;;;5028227;28;20056;-71
2022/04/27 12:18:25;;;;;;;;;;;11.10;67.30;;;;;;5046510;28;20049;-70
2022/04/27 12:20:52;;;;;;;10.75;2.35;;;11.10;62.40;;;;;;5045057;28;20044;-70
2022/04/27 12:23:30;;;;;;;10.98;2.58;;;11.00;53.30;;;;;;5044909;28;20033;-71
2022/04/27 12:26:00;;;;;;;15.15;3.22;;;11.00;67.20;;;;;;5046684;28;20484;-70
2022/04/27 12:28:40;;;;;;;11.95;2.08;;;11.00;64.10;;;;;;5046074;28;20110;-71
2022/04/27 12:31:08;;;;;;;17.17;2.40;;;10.90;61.50;;;;;;5028418;28;20088;-69
2022/04/27 12:33:37;;;;;;;15.98;2.47;;;10.80;63.30;;;;;;5044337;28;20044;-70
2022/04/27 12:39:01;;;;;;;11.65;2.17;;;10.90;65.30;;;;;;5045236;28;20045;-70
2022/04/27 12:41:34;;;;;;;10.07;2.03;;;10.90;63.80;;;;;;5044903;28;20391;-70
2022/04/27 12:44:05;;;;;;;8.27;1.98;;;11.00;62.00;;;;;;5045201;28;20214;-70
2022/04/27 12:46:31;;;;;;;16.80;3.50;;;11.00;61.10;;;;;;5044338;28;20041;-70
2022/04/27 12:49:06;;;;;;;6.72;1.67;;;11.10;62.70;;;;;;5045518;28;20040;-70
2022/04/27 12:51:35;;;;;;;11.05;3.05;;;11.00;50.70;;;;;;5044664;28;20522;-70
2022/04/27 12:54:02;;;;;;;12.27;2.05;;;11.00;60.60;;;;;;5044859;28;20044;-70
2022/04/27 12:56:35;;;;;;;11.40;2.58;;;10.90;65.60;;;;;;5027965;28;20044;-70
2022/04/27 12:59:09;;;;;;;8.15;1.80;;;10.90;64.50;;;;;;5044534;28;20087;-70
2022/04/27 13:01:36;;;;;;;12.13;2.58;;;11.00;72.40;;;;;;5028184;28;20048;-71
2022/04/27 13:04:02;;;;;;;11.90;2.20;;;11.00;55.70;;;;;;5044132;28;20116;-70
2022/04/27 13:06:31;;;;;;;10.82;2.20;;;11.10;65.90;;;;;;5044705;28;20144;-70
2022/04/27 13:11:55;;;;;;;13.75;2.13;;;11.20;65.90;;;;;;5044904;28;20090;-71
2022/04/27 13:11:57;;;;;;;11.95;2.20;;;11.20;51.30;;;;;;5044100;28;20041;-70
2022/04/27 13:14:27;;;;;;;9.77;2.85;;;11.40;65.80;;;;;;5045802;28;20109;-70
2022/04/27 13:16:54;;;;;;;11.52;2.35;;;11.50;49.50;;;;;;5027353;28;20148;-70
2022/04/27 13:19:19;;;;;;;12.23;2.22;;;11.50;51.10;;;;;;5044383;28;20064;-71